createdAt,value
2023-03-18T00:03:57.191Z,6.55
2023-03-18T00:08:58.559Z,5.43
2023-03-18T00:14:00.172Z,4.95
2023-03-18T00:19:02.733Z,5.20
2023-03-18T00:24:04.130Z,5.20
2023-03-18T00:29:05.428Z,5.82
2023-03-18T00:34:07.962Z,5.87
2023-03-18T00:39:09.370Z,6.38
2023-03-18T00:44:11.405Z,5.93
2023-03-18T00:49:13.053Z,6.18
2023-03-18T00:54:17.878Z,6.25
2023-03-18T00:59:19.261Z,6.90
2023-03-18T01:04:21.598Z,6.80
2023-03-18T01:09:23.387Z,7.13
2023-03-18T01:14:24.680Z,6.57
2023-03-18T01:19:26.636Z,6.22
2023-03-18T01:24:28.685Z,6.77
2023-03-18T01:29:30.883Z,6.65
2023-03-18T01:34:32.310Z,6.27
2023-03-18T01:39:34.474Z,6.38
2023-03-18T01:44:36.002Z,6.00
2023-03-18T01:49:44.876Z,6.30
2023-03-18T01:54:55.216Z,6.15
2023-03-18T01:59:57.337Z,6.00
2023-03-18T02:05:01.793Z,5.80
2023-03-18T02:15:10.837Z,6.23
2023-03-18T02:20:24.809Z,5.85
2023-03-18T02:25:45.462Z,5.87
2023-03-18T02:30:48.337Z,5.95
2023-03-18T02:35:52.409Z,5.20
2023-03-18T02:40:53.767Z,5.70
2023-03-18T02:46:04.831Z,5.43
2023-03-18T02:51:07.219Z,5.60
2023-03-18T02:56:09.167Z,4.80
2023-03-18T03:01:11.210Z,4.75
2023-03-18T03:06:12.733Z,4.70
2023-03-18T03:11:14.272Z,5.20
2023-03-18T03:16:16.500Z,4.53
2023-03-18T03:21:17.831Z,4.70
2023-03-18T03:26:19.312Z,4.47
2023-03-18T03:31:20.689Z,4.67
2023-03-18T03:36:22.066Z,4.57
2023-03-18T03:41:23.380Z,4.60
2023-03-18T03:46:25.210Z,4.80
2023-03-18T03:51:26.541Z,4.35
2023-03-18T03:56:28.227Z,4.53
2023-03-18T04:01:29.464Z,3.90
2023-03-18T04:06:31.032Z,4.57
2023-03-18T04:11:32.341Z,4.43
2023-03-18T04:16:33.915Z,4.28
2023-03-18T04:21:35.315Z,3.87
2023-03-18T04:26:36.608Z,4.40
2023-03-18T04:31:38.022Z,4.47
2023-03-18T04:36:39.359Z,3.85
2023-03-18T04:41:40.699Z,3.75
2023-03-18T04:46:42.020Z,4.03
2023-03-18T04:51:43.443Z,3.78
2023-03-18T04:56:44.681Z,3.30
2023-03-18T05:01:46.060Z,3.78
2023-03-18T05:06:47.320Z,3.45
2023-03-18T05:11:48.625Z,3.53
2023-03-18T05:16:49.938Z,3.67
2023-03-18T05:21:51.255Z,4.07
2023-03-18T05:26:52.588Z,3.50
2023-03-18T05:31:54.471Z,3.28
2023-03-18T05:36:57.563Z,2.97
2023-03-18T05:41:59.278Z,3.65
2023-03-18T05:47:00.664Z,3.07
2023-03-18T05:52:02.795Z,4.28
2023-03-18T05:57:04.191Z,3.78
2023-03-18T06:02:05.544Z,3.00
2023-03-18T06:07:06.829Z,3.50
2023-03-18T06:12:08.279Z,3.20
2023-03-18T06:17:09.551Z,3.05
2023-03-18T06:22:11.057Z,2.80
2023-03-18T06:27:12.289Z,3.37
2023-03-18T06:32:13.639Z,3.47
2023-03-18T06:37:15.302Z,3.30
2023-03-18T06:42:16.779Z,3.10
2023-03-18T06:47:18.736Z,3.40
2023-03-18T06:52:20.034Z,3.17
2023-03-18T06:57:21.662Z,3.17
2023-03-18T07:02:27.237Z,2.83
2023-03-18T07:07:29.106Z,3.45
2023-03-18T07:12:30.636Z,3.38
2023-03-18T07:17:31.934Z,3.50
2023-03-18T07:22:33.318Z,2.88
2023-03-18T07:27:34.673Z,2.80
2023-03-18T07:32:37.391Z,3.45
2023-03-18T07:37:40.213Z,2.97
2023-03-18T07:42:41.512Z,3.80
2023-03-18T07:47:43.316Z,2.70
2023-03-18T07:52:45.276Z,3.10
2023-03-18T07:57:47.264Z,2.97
2023-03-18T08:02:48.799Z,2.80
2023-03-18T08:07:50.168Z,4.30
2023-03-18T08:12:53.802Z,4.18
2023-03-18T08:17:56.041Z,2.90
2023-03-18T08:22:57.418Z,2.93
2023-03-18T08:27:58.743Z,3.58
2023-03-18T08:33:00.660Z,2.80
2023-03-18T08:38:02.191Z,3.20
2023-03-18T08:43:03.614Z,3.75
2023-03-18T08:48:05.283Z,4.50
2023-03-18T08:53:06.540Z,3.47
2023-03-18T08:58:08.324Z,3.53
2023-03-18T09:03:10.162Z,2.92
2023-03-18T09:08:11.504Z,2.80
2023-03-18T09:13:12.808Z,1.83
2023-03-18T09:18:14.917Z,1.85
2023-03-18T09:23:18.246Z,1.83
2023-03-18T09:28:19.553Z,2.38
2023-03-18T09:33:20.973Z,1.70
2023-03-18T09:38:22.464Z,2.00
2023-03-18T09:43:35.995Z,1.77
2023-03-18T09:48:56.690Z,1.63
2023-03-18T09:53:57.969Z,1.60
2023-03-18T09:59:21.454Z,3.27
2023-03-18T10:04:25.712Z,1.40
2023-03-18T10:09:32.196Z,1.60
2023-03-18T10:14:36.343Z,1.40
2023-03-18T10:19:37.997Z,1.40
2023-03-18T10:24:42.449Z,1.50
2023-03-18T10:30:06.858Z,1.43
2023-03-18T10:35:27.136Z,1.67
2023-03-18T10:40:32.540Z,1.33
2023-03-18T10:45:34.460Z,1.50
2023-03-18T10:50:42.473Z,1.70
2023-03-18T10:55:50.227Z,1.48
2023-03-18T11:00:51.524Z,1.50
2023-03-18T11:05:53.757Z,1.83
2023-03-18T11:10:55.115Z,1.40
2023-03-18T11:15:56.718Z,1.52
2023-03-18T11:21:00.892Z,1.50
2023-03-18T11:26:02.256Z,1.90
2023-03-18T11:31:05.703Z,1.42
2023-03-18T11:36:09.655Z,1.27
2023-03-18T11:41:22.428Z,1.60
2023-03-18T11:46:24.331Z,3.13
2023-03-18T11:51:27.279Z,1.58
2023-03-18T11:56:47.173Z,2.00
2023-03-18T12:02:19.049Z,1.50
2023-03-18T12:07:30.299Z,1.25
2023-03-18T12:12:31.904Z,2.10
2023-03-18T12:17:39.874Z,2.40
2023-03-18T12:23:00.806Z,1.40
2023-03-18T12:28:20.076Z,1.70
2023-03-18T12:33:33.957Z,1.20
2023-03-18T12:38:38.364Z,1.30
2023-03-18T12:43:45.785Z,1.13
2023-03-18T12:49:03.906Z,2.00
2023-03-18T12:54:12.099Z,1.42
2023-03-18T12:59:20.133Z,1.20
2023-03-18T13:04:23.209Z,1.53
2023-03-18T13:09:30.396Z,1.50
2023-03-18T13:14:41.175Z,1.55
2023-03-18T13:19:43.300Z,1.83
2023-03-18T13:24:47.398Z,1.70
2023-03-18T13:29:51.728Z,1.67
2023-03-18T13:35:14.258Z,1.73
2023-03-18T13:40:27.292Z,1.70
2023-03-18T13:45:31.339Z,1.65
2023-03-18T13:50:34.982Z,1.50
2023-03-18T13:55:39.847Z,1.50
2023-03-18T14:00:42.086Z,1.50
2023-03-18T14:05:45.277Z,1.90
2023-03-18T14:10:46.676Z,1.60
2023-03-18T14:15:48.192Z,1.90
2023-03-18T14:20:52.610Z,1.70
2023-03-18T14:26:01.890Z,1.30
2023-03-18T14:31:19.403Z,1.57
2023-03-18T14:36:27.746Z,2.17
2023-03-18T14:41:30.304Z,1.80
2023-03-18T14:46:34.152Z,5.23
2023-03-18T14:51:35.604Z,1.70
2023-03-18T14:56:40.442Z,1.60
2023-03-18T15:01:44.957Z,1.70
2023-03-18T15:06:46.463Z,2.00
2023-03-18T15:11:47.992Z,1.73
2023-03-18T15:16:50.553Z,1.63
2023-03-18T15:21:51.920Z,1.73
2023-03-18T15:26:56.951Z,1.38
2023-03-18T15:32:17.314Z,1.35
2023-03-18T15:37:33.716Z,1.70
2023-03-18T15:42:35.314Z,1.60
2023-03-18T15:47:36.913Z,1.77
2023-03-18T15:52:43.005Z,3.20
2023-03-18T15:57:44.341Z,2.17
2023-03-18T16:02:45.659Z,2.80
2023-03-18T16:07:47.887Z,1.33
2023-03-18T16:12:53.451Z,2.90
2023-03-18T16:17:55.286Z,2.90
2023-03-18T16:22:57.029Z,2.13
2023-03-18T16:27:59.686Z,5.47
2023-03-18T16:33:01.018Z,4.25
2023-03-18T16:38:02.311Z,1.77
2023-03-18T16:43:03.620Z,2.17
2023-03-18T16:48:06.699Z,3.40
2023-03-18T16:53:17.461Z,7.15
2023-03-18T16:58:22.156Z,2.70
2023-03-18T17:03:23.446Z,4.07
2023-03-18T17:08:24.765Z,3.70
2023-03-18T17:13:30.214Z,4.32
2023-03-18T17:18:31.886Z,4.30
2023-03-18T17:23:34.252Z,3.28
2023-03-18T17:28:37.404Z,3.40
2023-03-18T17:33:39.134Z,4.50
2023-03-18T17:38:40.979Z,8.80
2023-03-18T17:43:42.511Z,6.00
2023-03-18T17:48:43.876Z,6.17
2023-03-18T17:53:47.750Z,7.28
2023-03-18T17:58:50.493Z,6.00
2023-03-18T18:03:52.372Z,4.50
2023-03-18T18:08:56.472Z,4.72
2023-03-18T18:14:02.038Z,4.78
2023-03-18T18:19:03.402Z,4.00
2023-03-18T18:24:12.039Z,4.80
2023-03-18T18:29:16.576Z,5.70
2023-03-18T18:34:18.229Z,5.43
2023-03-18T18:39:20.870Z,4.15
2023-03-18T18:44:22.991Z,4.80
2023-03-18T18:49:24.326Z,5.67
2023-03-18T18:54:25.628Z,5.65
2023-03-18T18:59:30.735Z,8.50
2023-03-18T19:04:32.966Z,8.00
2023-03-18T19:09:34.828Z,6.47
2023-03-18T19:14:36.967Z,6.63
2023-03-18T19:19:38.658Z,7.35
2023-03-18T19:24:40.866Z,3.80
2023-03-18T19:29:42.304Z,6.87
2023-03-18T19:34:44.101Z,7.25
2023-03-18T19:39:46.685Z,8.35
2023-03-18T19:44:48.534Z,7.80
2023-03-18T19:49:50.009Z,7.97
2023-03-18T19:54:52.128Z,7.00
2023-03-18T19:59:53.919Z,6.80
2023-03-18T20:04:56.126Z,6.63
2023-03-18T20:09:57.426Z,7.13
2023-03-18T20:14:58.878Z,7.57
2023-03-18T20:20:01.039Z,7.93
2023-03-18T20:25:03.096Z,9.77
2023-03-18T20:30:10.339Z,8.73
2023-03-18T20:35:11.653Z,9.53
2023-03-18T20:40:18.879Z,9.70
2023-03-18T20:45:20.929Z,8.53
2023-03-18T20:50:25.750Z,8.77
2023-03-18T20:55:30.498Z,7.90
2023-03-18T21:00:33.191Z,8.43
2023-03-18T21:05:34.921Z,7.60
2023-03-18T21:10:37.216Z,7.97
2023-03-18T21:15:38.528Z,8.13
2023-03-18T21:20:39.990Z,5.82
2023-03-18T21:25:41.338Z,6.10
2023-03-18T21:30:43.311Z,6.60
2023-03-18T21:35:44.727Z,6.40
2023-03-18T21:40:46.315Z,6.30
2023-03-18T21:45:50.323Z,5.72
2023-03-18T21:50:51.805Z,7.30
2023-03-18T21:55:53.234Z,7.70
2023-03-18T22:00:58.533Z,9.43
2023-03-18T22:05:59.840Z,9.68
2023-03-18T22:11:01.380Z,8.05
2023-03-18T22:16:03.408Z,6.10
2023-03-18T22:21:09.421Z,6.10
2023-03-18T22:26:13.443Z,7.43
2023-03-18T22:31:17.029Z,8.13
2023-03-18T22:36:19.199Z,7.63
2023-03-18T22:41:21.854Z,4.47
2023-03-18T22:46:23.305Z,5.30
2023-03-18T22:51:27.179Z,5.20
2023-03-18T22:56:32.033Z,6.57
2023-03-18T23:01:33.721Z,7.45
2023-03-18T23:06:35.286Z,7.30
2023-03-18T23:11:36.679Z,7.60
2023-03-18T23:16:38.190Z,7.67
2023-03-18T23:21:40.613Z,7.38
2023-03-18T23:26:41.863Z,7.45
2023-03-18T23:31:43.180Z,7.03
2023-03-18T23:36:44.483Z,6.32
2023-03-18T23:41:46.543Z,6.80
2023-03-18T23:46:48.941Z,6.50
2023-03-18T23:51:51.098Z,6.85
2023-03-18T23:56:52.453Z,7.47
